Time;durP1;ratioP1;P1;durP2;ratioP2;P2;SDS_P1;SDS_P2;PMS_P1;PMS_P2;Temp;Humidity;BMP_temperature;BMP_pressure;BME280_temperature;BME280_humidity;BME280_pressure;Samples;Min_cycle;Max_cycle;Signal;HPM_P1;HPM_P2
2022/04/24 00:00:00;;;;;;;921.83;833.45;;;9.70;99.90;;;;;;5114464;28;20055;-81
2022/04/24 00:02:25;;;;;;;1441.32;940.70;;;9.70;99.90;;;;;;5131705;28;20130;-82
2022/04/24 00:04:51;;;;;;;1299.60;999.90;;;9.70;99.90;;;;;;5114496;28;20142;-81
2022/04/24 00:07:17;;;;;;;1999.90;999.90;;;9.60;99.90;;;;;;5097263;28;20135;-81
2022/04/24 00:09:43;;;;;;;1999.90;999.90;;;9.60;99.90;;;;;;5132130;28;20479;-81
2022/04/24 00:12:15;;;;;;;1999.90;999.90;;;9.50;99.90;;;;;;5114321;28;20483;-82
2022/04/24 00:14:44;;;;;;;1863.32;999.90;;;9.40;99.90;;;;;;5114027;28;20046;-81
2022/04/24 00:17:10;;;;;;;1144.70;942.60;;;9.40;99.90;;;;;;5113561;28;20215;-81
2022/04/24 00:19:35;;;;;;;1999.90;999.90;;;9.40;99.90;;;;;;5134361;27;20571;-81
2022/04/24 00:22:01;;;;;;;1029.07;921.10;;;9.40;99.90;;;;;;5100884;27;20035;-81
2022/04/24 00:24:27;;;;;;;1156.68;886.20;;;9.30;99.90;;;;;;5083850;27;20043;-81
2022/04/24 00:26:54;;;;;;;1774.70;909.45;;;9.40;99.90;;;;;;5136370;27;20054;-81
2022/04/24 00:29:20;;;;;;;876.60;800.90;;;9.40;99.90;;;;;;5136197;27;20055;-80
2022/04/24 00:31:46;;;;;;;1900.75;999.90;;;9.30;99.90;;;;;;5136226;27;20059;-81
2022/04/24 00:34:13;;;;;;;992.75;890.92;;;10.40;99.90;;;;;;5117530;27;20043;-81
2022/04/24 00:36:39;;;;;;;1999.90;999.90;;;9.20;99.90;;;;;;5135596;27;20130;-81
2022/04/24 00:39:05;;;;;;;1982.97;999.90;;;9.10;99.90;;;;;;5117930;27;20127;-81
2022/04/24 00:41:31;;;;;;;1457.50;993.92;;;9.20;99.90;;;;;;5135281;27;20483;-81
2022/04/24 00:43:57;;;;;;;982.05;886.65;;;9.20;99.90;;;;;;5135786;27;20069;-81
2022/04/24 00:46:42;;;;;;;826.67;760.85;;;10.60;99.90;;;;;;5116830;27;20047;-83
2022/04/24 00:49:10;;;;;;;1740.28;978.63;;;10.80;99.90;;;;;;5135510;27;20074;-81
2022/04/24 00:51:37;;;;;;;1631.00;999.90;;;9.10;99.90;;;;;;5135067;27;20106;-81
2022/04/24 00:54:06;;;;;;;1999.90;999.90;;;9.10;99.90;;;;;;5117209;27;20047;-82
2022/04/24 00:56:32;;;;;;;1932.30;999.90;;;9.00;99.90;;;;;;5117065;27;20079;-81
2022/04/24 00:59:00;;;;;;;1999.90;999.90;;;9.00;99.90;;;;;;5135266;27;20050;-81
2022/04/24 01:01:25;;;;;;;1999.90;999.90;;;9.80;99.90;;;;;;5117076;27;20131;-82
2022/04/24 01:03:52;;;;;;;1999.90;999.90;;;10.50;99.90;;;;;;5095831;28;20135;-81
2022/04/24 01:06:18;;;;;;;1999.90;999.90;;;9.00;99.90;;;;;;5096862;28;20524;-81
2022/04/24 01:08:44;;;;;;;1999.90;999.90;;;8.90;99.90;;;;;;5113098;28;20044;-81
2022/04/24 01:11:10;;;;;;;1999.90;999.90;;;8.80;99.90;;;;;;5114710;28;20048;-81
2022/04/24 01:13:35;;;;;;;1999.90;999.90;;;8.80;99.90;;;;;;5114224;28;20194;-81
2022/04/24 01:16:01;;;;;;;1999.90;999.90;;;8.70;99.90;;;;;;5096281;28;20102;-81
2022/04/24 01:18:27;;;;;;;1999.90;999.90;;;8.70;99.90;;;;;;5078904;28;20047;-82
2022/04/24 01:20:53;;;;;;;1999.90;999.90;;;8.70;99.90;;;;;;5096445;28;20043;-81
2022/04/24 01:23:19;;;;;;;1999.90;999.90;;;8.70;99.90;;;;;;5113193;28;20395;-81
2022/04/24 01:25:44;;;;;;;1999.90;999.90;;;8.60;99.90;;;;;;5113190;28;20047;-81
2022/04/24 01:28:10;;;;;;;1999.90;936.13;;;9.70;99.90;;;;;;5114299;28;20454;-81
2022/04/24 01:30:36;;;;;;;1999.90;795.00;;;8.70;99.90;;;;;;5112885;28;20131;-81
2022/04/24 01:33:03;;;;;;;1999.90;999.90;;;8.60;99.90;;;;;;5114354;28;20051;-81
2022/04/24 01:35:30;;;;;;;1999.90;999.90;;;8.60;99.90;;;;;;5095728;28;20043;-82
2022/04/24 01:37:58;;;;;;;1999.90;999.90;;;8.60;99.90;;;;;;5114234;28;20070;-81
2022/04/24 01:40:24;;;;;;;1999.90;999.90;;;10.10;99.90;;;;;;5114039;28;20507;-81
2022/04/24 01:42:50;;;;;;;1999.90;999.90;;;8.50;99.90;;;;;;5113907;28;20406;-81
2022/04/24 01:45:16;;;;;;;1999.90;707.85;;;8.50;99.90;;;;;;5114079;28;20115;-84
2022/04/24 01:47:42;;;;;;;1999.90;999.90;;;8.40;99.90;;;;;;5095257;28;20336;-81
2022/04/24 01:50:07;;;;;;;1999.90;999.90;;;8.80;99.90;;;;;;5113997;28;20126;-82
2022/04/24 01:52:33;;;;;;;1999.90;999.90;;;8.90;99.90;;;;;;5113714;28;20118;-82
2022/04/24 01:54:59;;;;;;;1999.90;999.90;;;9.40;99.90;;;;;;5112592;28;20452;-80
2022/04/24 01:57:24;;;;;;;1999.90;999.90;;;9.80;99.90;;;;;;5112613;28;20048;-81
2022/04/24 01:59:52;;;;;;;1750.22;863.03;;;8.40;99.90;;;;;;5095556;28;20189;-81
2022/04/24 02:02:18;;;;;;;1999.90;999.90;;;8.40;99.90;;;;;;5112454;28;20291;-81
2022/04/24 02:04:44;;;;;;;1999.90;999.90;;;9.20;99.90;;;;;;5095410;28;20047;-80
2022/04/24 02:07:11;;;;;;;1999.90;989.22;;;8.30;99.90;;;;;;5113538;28;20100;-81
2022/04/24 02:09:38;;;;;;;1999.90;985.85;;;8.60;99.90;;;;;;5113397;28;20051;-81
2022/04/24 02:12:05;;;;;;;;;;;9.70;99.90;;;;;;5113676;28;20455;-81
2022/04/24 02:14:30;;;;;;;1999.90;999.90;;;8.20;99.90;;;;;;5113606;28;19929;-81
2022/04/24 02:16:57;;;;;;;1999.90;999.90;;;10.10;99.90;;;;;;5094820;28;20126;-85
2022/04/24 02:19:22;;;;;;;1999.90;999.90;;;8.70;99.90;;;;;;5113281;28;20043;-80
2022/04/24 02:21:48;;;;;;;1999.90;999.90;;;8.80;99.90;;;;;;5113237;28;20048;-81
2022/04/24 02:24:14;;;;;;;1896.97;999.90;;;7.90;99.90;;;;;;5113337;28;20047;-81
2022/04/24 02:26:40;;;;;;;1970.00;999.90;;;7.90;99.90;;;;;;5077989;28;20058;-81
2022/04/24 02:29:06;;;;;;;1968.20;999.90;;;8.20;99.90;;;;;;5094993;28;20051;-81
2022/04/24 02:31:32;;;;;;;1966.50;999.90;;;7.90;99.90;;;;;;5112159;28;20349;-81
2022/04/24 02:33:57;;;;;;;1717.75;999.90;;;8.00;99.90;;;;;;5094421;28;20055;-81
2022/04/24 02:36:23;;;;;;;1999.90;999.90;;;7.80;99.90;;;;;;5095114;28;20039;-81
2022/04/24 02:38:49;;;;;;;1999.90;999.90;;;7.70;99.90;;;;;;5094677;28;20069;-81
2022/04/24 02:41:15;;;;;;;1986.55;999.90;;;;;;;;;;5094617;28;20044;-80
2022/04/24 02:43:41;;;;;;;1882.72;999.90;;;7.70;99.90;;;;;;5094404;28;20051;-81
2022/04/24 02:46:07;;;;;;;1970.55;999.90;;;8.70;99.90;;;;;;5113078;28;20101;-80
2022/04/24 02:48:35;;;;;;;1628.95;999.90;;;8.60;99.90;;;;;;5077683;28;20403;-81
2022/04/24 02:51:03;;;;;;;1801.07;999.90;;;7.60;99.90;;;;;;5112984;28;20047;-81
2022/04/24 02:53:29;;;;;;;1770.30;999.90;;;7.60;99.90;;;;;;5112941;28;20051;-81
2022/04/24 02:55:54;;;;;;;1815.68;999.90;;;7.60;99.90;;;;;;5077295;28;20085;-81
2022/04/24 02:58:21;;;;;;;1476.18;999.90;;;7.50;99.90;;;;;;5112864;28;20058;-81
2022/04/24 03:00:50;;;;;;;1749.90;999.90;;;7.50;99.90;;;;;;5093919;28;20123;-81
2022/04/24 03:03:20;;;;;;;1034.30;936.30;;;7.50;99.90;;;;;;5093591;28;20561;-80
2022/04/24 03:05:48;;;;;;;1038.15;941.60;;;7.50;99.90;;;;;;5112449;28;20048;-81
2022/04/24 03:08:18;;;;;;;1094.80;986.05;;;8.30;99.90;;;;;;5094484;28;20067;-81
2022/04/24 03:10:44;;;;;;;1101.15;988.95;;;7.40;99.90;;;;;;5111105;28;20086;-81
2022/04/24 03:13:10;;;;;;;1280.95;999.90;;;7.30;99.90;;;;;;5112406;28;20082;-81
2022/04/24 03:15:37;;;;;;;1718.20;999.90;;;7.30;99.90;;;;;;5077630;28;20043;-87
2022/04/24 03:18:04;;;;;;;1551.07;999.90;;;8.40;99.90;;;;;;5112139;28;20399;-80
2022/04/24 03:20:30;;;;;;;1613.82;999.90;;;7.30;99.90;;;;;;5094156;28;20052;-82
2022/04/24 03:22:58;;;;;;;1859.00;999.90;;;7.30;99.90;;;;;;5093835;28;20141;-80
2022/04/24 03:25:24;;;;;;;1827.63;999.90;;;7.30;99.90;;;;;;5110840;28;20527;-80
2022/04/24 03:27:50;;;;;;;1701.22;999.90;;;7.20;99.90;;;;;;5077046;28;20146;-80
2022/04/24 03:30:16;;;;;;;1796.18;999.90;;;7.30;99.90;;;;;;5111179;28;20364;-81
2022/04/24 03:32:41;;;;;;;1709.60;999.90;;;7.40;99.90;;;;;;5111385;28;20040;-81
2022/04/24 03:35:09;;;;;;;1372.13;999.90;;;8.10;99.90;;;;;;5112258;28;20177;-80
2022/04/24 03:37:36;;;;;;;1205.25;984.22;;;8.00;1.00;;;;;;5112119;28;20048;-80
2022/04/24 03:40:03;;;;;;;1095.47;965.10;;;7.20;99.90;;;;;;5111917;28;20047;-81
2022/04/24 03:42:28;;;;;;;1560.18;999.90;;;7.10;99.90;;;;;;5094004;28;20113;-80
2022/04/24 03:44:55;;;;;;;1143.53;961.72;;;7.40;99.90;;;;;;5093824;28;20067;-81
2022/04/24 03:47:23;;;;;;;1349.60;999.90;;;8.90;99.90;;;;;;5111703;28;20048;-81
2022/04/24 03:49:50;;;;;;;1222.93;967.90;;;7.30;99.90;;;;;;5111780;28;20490;-80
2022/04/24 03:52:16;;;;;;;1177.45;997.33;;;7.10;1.00;;;;;;5112079;28;20039;-81
2022/04/24 03:54:43;;;;;;;962.20;879.22;;;7.50;99.90;;;;;;5096198;28;20090;-81
2022/04/24 03:57:09;;;;;;;1147.47;994.53;;;7.60;99.90;;;;;;5097828;28;20063;-81
2022/04/24 03:59:35;;;;;;;1105.65;988.78;;;7.40;99.90;;;;;;5098308;28;20424;-81
2022/04/24 04:02:02;;;;;;;1030.07;934.85;;;7.10;99.90;;;;;;5114174;28;20090;-81
2022/04/24 04:04:28;;;;;;;1216.35;968.58;;;8.20;99.90;;;;;;5134302;27;20059;-80
2022/04/24 04:06:54;;;;;;;1063.68;948.97;;;7.50;99.90;;;;;;5118033;27;20040;-80
2022/04/24 04:09:20;;;;;;;1043.03;935.45;;;7.10;99.90;;;;;;5118168;27;20051;-81
2022/04/24 04:11:46;;;;;;;1321.43;999.90;;;7.00;1.00;;;;;;5117966;27;20035;-81
2022/04/24 04:14:12;;;;;;;1528.05;999.90;;;8.20;99.90;;;;;;5136528;27;20043;-80
2022/04/24 04:16:38;;;;;;;1265.80;967.08;;;7.00;1.00;;;;;;5118004;27;20135;-81
2022/04/24 04:19:03;;;;;;;1426.47;999.90;;;7.10;1.00;;;;;;5117422;27;20082;-81
2022/04/24 04:21:30;;;;;;;1404.35;999.90;;;8.70;1.00;;;;;;5118073;27;20421;-81
2022/04/24 04:23:59;;;;;;;1080.03;956.05;;;8.80;1.00;;;;;;5117732;27;20039;-80
2022/04/24 04:26:24;;;;;;;1192.47;995.13;;;8.70;1.00;;;;;;5136367;27;20043;-80
2022/04/24 04:28:51;;;;;;;1322.88;998.15;;;7.50;1.00;;;;;;5117399;27;20313;-80
2022/04/24 04:31:17;;;;;;;1572.95;999.90;;;7.10;1.00;;;;;;5118076;27;20047;-81
2022/04/24 04:33:43;;;;;;;1201.05;999.90;;;7.00;1.00;;;;;;5117291;27;20126;-80
2022/04/24 04:36:09;;;;;;;1466.22;999.90;;;8.80;1.00;;;;;;5117416;27;20043;-81
2022/04/24 04:38:35;;;;;;;951.03;858.60;;;7.00;1.00;;;;;;5135858;27;20146;-82
2022/04/24 04:41:01;;;;;;;1233.43;999.90;;;8.00;1.00;;;;;;5136035;27;20047;-82
2022/04/24 04:43:28;;;;;;;1074.22;961.92;;;7.00;1.00;;;;;;5117867;27;20043;-81
2022/04/24 04:45:53;;;;;;;989.30;891.63;;;7.00;1.00;;;;;;5136222;27;20053;-81
2022/04/24 04:48:19;;;;;;;1110.38;969.10;;;7.00;1.00;;;;;;5117517;27;20051;-81
2022/04/24 04:50:45;;;;;;;1091.30;958.92;;;7.30;1.00;;;;;;5117628;27;20047;-81
2022/04/24 04:53:11;;;;;;;1157.55;999.90;;;7.00;1.00;;;;;;5135849;27;20138;-81
2022/04/24 04:55:37;;;;;;;1481.43;999.90;;;7.60;1.00;;;;;;5135990;27;20035;-81
2022/04/24 04:58:02;;;;;;;1476.13;999.90;;;7.00;1.00;;;;;;5117163;27;20187;-81
2022/04/24 05:00:28;;;;;;;1400.40;999.90;;;7.30;1.00;;;;;;5117742;27;20047;-81
2022/04/24 05:02:54;;;;;;;1455.18;999.90;;;7.00;1.00;;;;;;5112574;28;20181;-81
2022/04/24 05:05:19;;;;;;;1609.75;999.90;;;7.10;1.00;;;;;;5113840;28;20051;-81
2022/04/24 05:07:45;;;;;;;1644.78;999.90;;;7.20;1.00;;;;;;5096039;28;20040;-81
2022/04/24 05:10:11;;;;;;;1426.03;999.90;;;7.30;1.00;;;;;;5112585;28;20067;-81
2022/04/24 05:12:37;;;;;;;1499.50;999.90;;;7.40;1.00;;;;;;5114685;28;20130;-81
2022/04/24 05:15:13;;;;;;;1329.13;999.90;;;7.40;1.00;;;;;;5095656;28;20047;-82
2022/04/24 05:17:40;;;;;;;1198.78;997.75;;;7.50;1.00;;;;;;5112271;28;20147;-81
2022/04/24 05:20:08;;;;;;;959.83;866.95;;;7.60;1.00;;;;;;5095486;28;20460;-81
2022/04/24 05:22:33;;;;;;;;;;;7.70;1.00;;;;;;5096208;28;20043;-81
2022/04/24 05:24:59;;;;;;;933.35;847.53;;;7.80;1.00;;;;;;5095524;28;19981;-82
2022/04/24 05:27:26;;;;;;;1118.25;993.13;;;8.40;1.00;;;;;;5095165;28;20529;-82
2022/04/24 05:29:52;;;;;;;1070.05;963.97;;;8.30;1.00;;;;;;5113388;28;20043;-82
2022/04/24 05:32:17;;;;;;;948.47;861.22;;;8.10;1.00;;;;;;5095118;28;20058;-81
2022/04/24 05:34:43;;;;;;;940.05;845.92;;;9.00;99.90;;;;;;5112425;28;20123;-82
2022/04/24 05:37:09;;;;;;;1391.45;999.90;;;8.20;99.90;;;;;;5094786;28;20046;-82
2022/04/24 05:39:35;;;;;;;1239.90;999.90;;;9.60;99.90;;;;;;5096224;28;20048;-81
2022/04/24 05:42:05;;;;;;;1049.03;940.25;;;8.40;99.90;;;;;;5113563;28;20051;-81
2022/04/24 05:44:31;;;;;;;1135.45;991.92;;;8.40;99.90;;;;;;5113082;28;20555;-82
2022/04/24 05:46:56;;;;;;;1104.32;951.10;;;8.40;99.90;;;;;;5094544;28;20086;-84
2022/04/24 05:49:22;;;;;;;1101.35;987.28;;;9.30;99.90;;;;;;5095097;28;20181;-81
2022/04/24 05:51:48;;;;;;;1257.38;999.50;;;8.50;99.90;;;;;;5113285;28;20051;-82
2022/04/24 05:54:15;;;;;;;1101.97;965.60;;;9.90;99.90;;;;;;5077970;28;20055;-81
2022/04/24 05:56:41;;;;;;;1300.80;999.17;;;8.60;1.00;;;;;;5111821;28;20058;-81
2022/04/24 05:59:08;;;;;;;1314.97;999.90;;;9.50;99.90;;;;;;5094752;28;20055;-81
2022/04/24 06:01:34;;;;;;;1099.25;972.67;;;8.80;99.90;;;;;;5113354;28;20052;-82
2022/04/24 06:04:00;;;;;;;1106.60;988.78;;;;;;;;;;5120179;27;156735;-82
2022/04/24 06:06:29;;;;;;;1340.93;999.90;;;8.80;99.90;;;;;;5116098;27;20053;-82
2022/04/24 06:08:54;;;;;;;;;;;8.90;99.90;;;;;;5134525;27;20090;-82
2022/04/24 06:11:20;;;;;;;1005.67;909.85;;;8.90;99.90;;;;;;5134439;27;20295;-81
2022/04/24 06:13:47;;;;;;;1095.95;937.85;;;8.90;99.90;;;;;;5082308;27;20055;-82
2022/04/24 06:16:13;;;;;;;1290.00;999.90;;;8.90;99.90;;;;;;5115003;28;20073;-82
2022/04/24 06:18:38;;;;;;;1255.55;999.10;;;9.00;99.90;;;;;;5133904;27;20273;-81
2022/04/24 06:21:04;;;;;;;991.40;899.25;;;9.90;99.90;;;;;;5115783;27;20054;-82
2022/04/24 06:23:31;;;;;;;958.83;859.38;;;9.70;99.90;;;;;;5134079;27;20059;-82
2022/04/24 06:25:58;;;;;;;996.05;897.83;;;9.30;99.90;;;;;;5133786;27;20077;-82
2022/04/24 06:28:25;;;;;;;987.75;886.45;;;9.30;99.90;;;;;;5133948;27;20098;-82
2022/04/24 06:30:50;;;;;;;1147.10;973.65;;;9.20;99.90;;;;;;5115594;27;20158;-81
2022/04/24 06:33:17;;;;;;;1127.45;999.55;;;9.30;99.90;;;;;;5114778;27;20496;-82
2022/04/24 06:35:45;;;;;;;1136.13;999.80;;;10.60;99.90;;;;;;5133911;27;20047;-82
2022/04/24 06:38:11;;;;;;;949.85;865.65;;;9.40;99.90;;;;;;5115456;27;20051;-82
2022/04/24 06:40:38;;;;;;;1155.13;962.47;;;10.00;99.90;;;;;;5115574;27;20043;-82
2022/04/24 06:43:05;;;;;;;807.13;738.10;;;9.60;99.90;;;;;;5133508;27;20096;-82
2022/04/24 06:45:39;;;;;;;857.85;780.55;;;9.80;99.90;;;;;;5115504;27;20035;-81
2022/04/24 06:48:09;;;;;;;824.53;756.05;;;11.50;99.90;;;;;;5133051;27;20075;-82
2022/04/24 06:50:37;;;;;;;1093.90;965.20;;;10.10;99.90;;;;;;5115491;27;20050;-81
2022/04/24 06:53:12;;;;;;;;;;;10.20;99.90;;;;;;5133689;27;20055;-82
2022/04/24 06:55:42;;;;;;;976.35;892.30;;;10.30;99.90;;;;;;5133468;27;19926;-82
2022/04/24 06:58:10;;;;;;;841.10;774.28;;;10.30;99.90;;;;;;5114801;27;20050;-82
2022/04/24 07:00:38;;;;;;;1039.30;940.47;;;10.30;99.90;;;;;;5133504;27;20491;-82
2022/04/24 07:03:12;;;;;;;1073.70;962.38;;;11.70;99.90;;;;;;5132417;27;20063;-83
2022/04/24 07:05:38;;;;;;;958.10;877.25;;;10.40;99.90;;;;;;5133234;27;20054;-82
2022/04/24 07:08:05;;;;;;;1042.25;948.22;;;10.50;99.90;;;;;;5114823;27;20054;-83
2022/04/24 07:10:31;;;;;;;905.63;827.95;;;10.60;99.90;;;;;;5133437;27;20237;-82
2022/04/24 07:12:56;;;;;;;1089.55;988.58;;;10.70;99.90;;;;;;5133210;27;20051;-82
2022/04/24 07:15:23;;;;;;;1114.30;993.70;;;10.80;99.90;;;;;;5114461;27;20043;-82
2022/04/24 07:17:51;;;;;;;1040.35;946.40;;;12.10;99.90;;;;;;5132496;27;20092;-82
2022/04/24 07:20:18;;;;;;;1098.47;991.10;;;11.00;99.90;;;;;;5132620;27;20545;-82
2022/04/24 07:22:44;;;;;;;1137.28;999.90;;;11.10;99.90;;;;;;5133292;27;20043;-82
2022/04/24 07:25:10;;;;;;;1099.47;996.85;;;11.70;99.90;;;;;;5097145;28;20515;-82
2022/04/24 07:27:36;;;;;;;702.50;635.08;;;12.60;99.90;;;;;;5114429;27;20046;-82
2022/04/24 07:30:02;;;;;;;656.17;600.67;;;13.90;99.90;;;;;;5114612;27;20387;-83
2022/04/24 07:32:38;;;;;;;602.60;554.13;;;15.20;99.90;;;;;;5114338;28;20039;-82
2022/04/24 07:35:04;;;;;;;764.53;703.35;;;16.00;99.90;;;;;;5132970;27;20108;-82
2022/04/24 07:37:32;;;;;;;650.85;595.08;;;16.90;99.90;;;;;;5097312;27;20125;-82
2022/04/24 07:40:01;;;;;;;531.30;489.42;;;18.00;99.90;;;;;;5097805;28;20127;-83
2022/04/24 07:42:27;;;;;;;825.92;750.08;;;19.10;99.90;;;;;;5114399;28;20044;-83
2022/04/24 07:44:52;;;;;;;619.47;570.47;;;20.00;99.90;;;;;;5114669;28;20050;-82
2022/04/24 07:47:18;;;;;;;609.10;558.90;;;20.50;99.90;;;;;;5113942;28;20414;-84
2022/04/24 07:49:44;;;;;;;784.13;721.88;;;21.00;99.90;;;;;;5081094;28;20043;-82
2022/04/24 07:52:09;;;;;;;653.20;597.30;;;21.70;99.90;;;;;;5113937;28;20103;-83
2022/04/24 07:54:35;;;;;;;513.08;471.70;;;22.20;99.90;;;;;;5132653;28;20054;-83
2022/04/24 07:57:01;;;;;;;463.02;422.55;;;22.40;99.90;;;;;;5113930;28;20042;-84
2022/04/24 07:59:29;;;;;;;290.05;269.20;;;22.40;99.90;;;;;;5114598;28;20514;-82
2022/04/24 08:01:55;;;;;;;441.02;408.30;;;22.60;99.90;;;;;;5114422;28;20118;-82
2022/04/24 08:04:21;;;;;;;572.75;528.45;;;23.00;99.90;;;;;;5131538;28;20059;-83
2022/04/24 08:06:46;;;;;;;488.25;449.52;;;22.70;99.90;;;;;;5132771;28;20111;-83
2022/04/24 08:09:12;;;;;;;173.68;161.82;;;22.60;99.90;;;;;;5114067;28;20047;-84
2022/04/24 08:11:38;;;;;;;466.27;435.60;;;23.00;99.90;;;;;;5132605;28;20053;-84
2022/04/24 08:14:03;;;;;;;450.98;421.70;;;23.20;99.90;;;;;;5132231;28;20133;-83
2022/04/24 08:16:31;;;;;;;277.20;261.23;;;23.80;99.90;;;;;;5132229;28;20053;-83
2022/04/24 08:19:01;;;;;;;;;;;23.80;99.90;;;;;;5113643;28;20103;-82
2022/04/24 08:21:26;;;;;;;368.55;339.55;;;23.70;99.90;;;;;;5132602;28;20309;-83
2022/04/24 08:23:52;;;;;;;430.17;403.75;;;23.70;99.90;;;;;;5114355;28;20153;-83
2022/04/24 08:26:20;;;;;;;436.75;408.77;;;24.00;99.90;;;;;;5097236;28;20100;-83
2022/04/24 08:28:46;;;;;;;485.33;455.02;;;24.30;99.90;;;;;;5097332;28;20051;-83
2022/04/24 08:31:11;;;;;;;279.60;263.35;;;25.00;99.90;;;;;;5131741;28;20043;-83
2022/04/24 08:33:37;;;;;;;473.13;438.17;;;25.20;99.90;;;;;;5113868;28;20162;-83
2022/04/24 08:36:05;;;;;;;446.05;417.83;;;25.50;99.90;;;;;;5113587;28;20495;-88
2022/04/24 08:38:31;;;;;;;383.23;358.45;;;25.70;99.90;;;;;;5132359;28;20049;-83
2022/04/24 08:41:00;;;;;;;392.25;366.02;;;26.20;99.90;;;;;;5135103;27;20043;-83
2022/04/24 08:43:26;;;;;;;323.45;301.77;;;26.40;99.90;;;;;;5100611;27;20536;-83
2022/04/24 08:45:52;;;;;;;179.82;169.35;;;26.60;99.90;;;;;;5136141;27;20047;-83
2022/04/24 08:48:19;;;;;;;665.67;613.53;;;26.40;99.90;;;;;;5116929;27;20043;-81
2022/04/24 08:50:46;;;;;;;231.35;217.82;;;26.60;99.90;;;;;;5136199;27;20057;-84
2022/04/24 08:53:14;;;;;;;421.00;384.40;;;26.80;99.90;;;;;;5117189;27;20519;-84
2022/04/24 08:55:40;;;;;;;200.77;186.35;;;26.80;99.90;;;;;;5117638;27;20055;-84
2022/04/24 08:58:05;;;;;;;161.85;151.10;;;26.90;99.90;;;;;;5117200;27;20075;-87
2022/04/24 09:00:33;;;;;;;307.17;281.95;;;26.50;99.90;;;;;;5135920;27;20047;-83
2022/04/24 09:02:59;;;;;;;;;;;26.70;99.90;;;;;;5067986;27;20055;-83
2022/04/24 09:05:25;;;;;;;396.50;362.60;;;26.80;99.90;;;;;;5135126;27;19919;-83
2022/04/24 09:08:03;;;;;;;179.13;166.83;;;26.90;99.90;;;;;;5100586;27;20183;-83
2022/04/24 09:10:29;;;;;;;112.77;106.37;;;27.20;99.90;;;;;;5100063;27;20391;-83
2022/04/24 09:12:55;;;;;;;126.35;118.63;;;;;;;;;;5135566;27;20277;-83
2022/04/24 09:15:21;;;;;;;115.93;108.13;;;27.50;99.90;;;;;;5116982;27;20492;-84
2022/04/24 09:17:46;;;;;;;547.67;503.23;;;27.80;99.90;;;;;;5116915;27;20089;-84
2022/04/24 09:20:17;;;;;;;203.30;189.02;;;28.10;99.90;;;;;;5135204;27;20043;-84
2022/04/24 09:22:44;;;;;;;144.25;134.77;;;28.10;99.90;;;;;;5135059;27;20530;-83
2022/04/24 09:25:12;;;;;;;95.47;90.07;;;28.20;99.90;;;;;;5099954;27;20134;-84
2022/04/24 09:27:40;;;;;;;165.23;155.85;;;28.30;99.90;;;;;;5135118;27;20043;-83
2022/04/24 09:30:12;;;;;;;87.45;82.65;;;28.40;99.90;;;;;;5135312;27;20043;-82
2022/04/24 09:32:49;;;;;;;180.18;169.77;;;28.40;99.90;;;;;;5134746;27;20044;-84
2022/04/24 09:35:32;;;;;;;97.28;91.75;;;28.60;99.90;;;;;;5134929;27;20043;-83
2022/04/24 09:38:17;;;;;;;214.05;198.38;;;28.60;99.90;;;;;;5116567;27;20061;-83
2022/04/24 09:40:47;;;;;;;307.70;287.17;;;28.70;99.90;;;;;;5116521;27;20051;-83
2022/04/24 09:43:15;;;;;;;147.63;138.73;;;28.90;99.90;;;;;;5134599;27;20079;-84
2022/04/24 09:45:41;;;;;;;;;;;28.80;99.90;;;;;;5135305;27;20051;-83
2022/04/24 09:48:15;;;;;;;266.33;249.82;;;28.70;99.90;;;;;;5134510;27;20398;-83
2022/04/24 09:50:41;;;;;;;97.75;91.57;;;28.70;99.90;;;;;;5134231;27;20055;-84
2022/04/24 09:53:10;;;;;;;88.72;83.05;;;28.70;99.90;;;;;;5115935;27;20126;-84
2022/04/24 09:55:39;;;;;;;194.20;180.68;;;28.70;99.90;;;;;;5134632;27;20043;-84
2022/04/24 09:58:08;;;;;;;98.63;92.20;;;28.80;99.90;;;;;;5099300;27;20105;-83
2022/04/24 10:00:34;;;;;;;102.78;95.97;;;28.40;99.90;;;;;;5116035;27;20093;-84
2022/04/24 10:03:02;;;;;;;333.73;309.92;;;28.30;99.90;;;;;;5134181;27;20042;-83
2022/04/24 10:05:39;;;;;;;192.82;179.40;;;28.10;99.90;;;;;;5098840;27;20141;-84
2022/04/24 10:08:06;;;;;;;127.13;119.00;;;28.20;99.90;;;;;;5116672;27;20141;-83
2022/04/24 10:10:32;;;;;;;56.47;53.08;;;28.50;99.90;;;;;;5134241;27;20039;-83
2022/04/24 10:13:01;;;;;;;266.33;247.68;;;28.70;99.90;;;;;;5116157;27;20039;-83
2022/04/24 10:15:28;;;;;;;214.98;200.82;;;28.80;99.90;;;;;;5115579;27;20079;-84
2022/04/24 10:18:03;;;;;;;167.05;156.35;;;28.90;99.90;;;;;;5133946;27;20043;-84
2022/04/24 10:20:48;;;;;;;121.15;113.88;;;29.00;99.90;;;;;;5134024;27;20039;-84
2022/04/24 10:23:14;;;;;;;144.02;135.43;;;29.10;99.90;;;;;;5134288;27;20043;-84
2022/04/24 10:25:42;;;;;;;136.80;128.65;;;29.10;99.90;;;;;;5134157;27;20053;-84
2022/04/24 10:28:12;;;;;;;274.73;256.98;;;29.00;99.90;;;;;;5098659;27;20051;-84
2022/04/24 10:30:39;;;;;;;181.63;169.85;;;29.20;99.90;;;;;;5115568;27;20059;-83
2022/04/24 10:33:21;;;;;;;276.02;256.92;;;29.20;99.90;;;;;;5133691;27;20091;-83
2022/04/24 10:35:51;;;;;;;287.98;268.38;;;29.50;99.90;;;;;;5115397;27;20039;-81
2022/04/24 10:38:18;;;;;;;236.18;221.73;;;29.30;99.90;;;;;;5098154;27;20051;-83
2022/04/24 10:41:13;;;;;;;283.98;266.63;;;29.50;99.90;;;;;;5115563;27;20392;-82
2022/04/24 10:43:46;;;;;;;272.80;256.67;;;29.60;99.90;;;;;;5115401;27;20500;-81
2022/04/24 10:46:24;;;;;;;462.63;424.33;;;29.70;99.90;;;;;;5134534;27;20046;-82
2022/04/24 10:48:54;;;;;;;242.35;224.30;;;29.40;99.90;;;;;;5115202;27;20047;-82
2022/04/24 10:51:30;;;;;;;313.75;290.58;;;28.60;99.90;;;;;;5115333;27;20043;-83
2022/04/24 10:54:08;;;;;;;380.08;350.42;;;28.40;99.90;;;;;;5098365;27;20456;-82
2022/04/24 10:56:36;;;;;;;172.98;161.75;;;28.10;99.90;;;;;;5133336;27;20040;-82
2022/04/24 10:59:24;;;;;;;480.67;443.02;;;27.20;99.90;;;;;;5133489;27;20039;-82
2022/04/24 11:01:52;;;;;;;534.72;493.73;;;26.40;99.90;;;;;;5129133;27;20499;-82
2022/04/24 11:04:19;;;;;;;354.92;326.85;;;26.60;99.90;;;;;;5110875;28;20067;-82
2022/04/24 11:06:56;;;;;;;564.10;522.35;;;26.70;99.90;;;;;;5094623;28;20105;-82
2022/04/24 11:09:23;;;;;;;565.63;521.13;;;26.30;99.90;;;;;;5111302;28;20130;-82
2022/04/24 11:11:57;;;;;;;363.33;337.05;;;26.70;99.90;;;;;;5112660;28;20047;-82
2022/04/24 11:14:25;;;;;;;405.33;376.73;;;27.60;99.90;;;;;;5112377;28;20043;-82
2022/04/24 11:17:03;;;;;;;403.33;373.35;;;28.20;99.90;;;;;;5112245;28;20476;-82
2022/04/24 11:19:37;;;;;;;554.90;511.40;;;27.60;99.90;;;;;;5094181;28;20093;-82
2022/04/24 11:22:06;;;;;;;575.92;531.42;;;26.60;99.90;;;;;;5112483;28;20105;-82
2022/04/24 11:24:36;;;;;;;619.22;562.63;;;26.50;99.90;;;;;;5094125;28;20051;-82
2022/04/24 11:27:12;;;;;;;557.03;514.03;;;27.80;99.90;;;;;;5112173;28;20388;-82
2022/04/24 11:29:38;;;;;;;408.67;375.70;;;28.20;99.90;;;;;;5094032;28;20074;-82
2022/04/24 11:32:09;;;;;;;572.17;525.22;;;27.70;99.90;;;;;;5112195;28;20051;-83
2022/04/24 11:34:37;;;;;;;390.27;360.55;;;26.90;99.90;;;;;;5093832;28;20058;-82
2022/04/24 11:37:04;;;;;;;699.97;645.10;;;26.30;99.90;;;;;;5111028;28;20054;-82
2022/04/24 11:39:30;;;;;;;440.20;405.73;;;26.50;99.90;;;;;;5112274;28;20044;-83
2022/04/24 11:41:58;;;;;;;699.63;639.42;;;26.30;99.90;;;;;;5111205;28;20048;-86
2022/04/24 11:50:14;;;;;;;532.83;489.70;;;24.70;99.90;;;;;;5094086;28;20048;-83
2022/04/24 11:52:43;;;;;;;669.03;611.83;;;25.40;99.90;;;;;;5112143;28;20035;-84
2022/04/24 11:55:10;;;;;;;605.72;559.75;;;25.90;99.90;;;;;;5094844;28;20047;-83
2022/04/24 11:57:36;;;;;;;620.35;568.83;;;25.70;99.90;;;;;;5093655;28;20035;-83
2022/04/24 12:00:05;;;;;;;516.55;477.15;;;25.10;99.90;;;;;;5112498;28;20055;-83
2022/04/24 12:02:34;;;;;;;655.25;601.45;;;24.20;99.90;;;;;;5111725;28;20127;-83
2022/04/24 12:05:00;;;;;;;781.70;701.72;;;23.00;99.90;;;;;;5123792;28;20103;-83
2022/04/24 12:07:36;;;;;;;694.47;635.50;;;22.60;99.90;;;;;;5132464;28;20087;-86
2022/04/24 12:10:10;;;;;;;689.55;630.42;;;22.80;99.90;;;;;;5114759;28;20147;-83
2022/04/24 12:12:47;;;;;;;852.88;772.22;;;23.00;99.90;;;;;;5114290;28;20073;-83
2022/04/24 12:15:21;;;;;;;725.35;662.03;;;23.50;99.90;;;;;;5099344;27;20047;-82
2022/04/24 12:17:54;;;;;;;603.63;555.13;;;23.30;99.90;;;;;;5135688;27;20242;-81
2022/04/24 12:20:21;;;;;;;672.13;613.65;;;22.90;99.90;;;;;;5118670;27;20119;-82